createdAt,value
2018-09-12T00:00:04.619Z,3.10
2018-09-12T00:02:32.967Z,3.17
2018-09-12T00:05:01.316Z,2.23
2018-09-12T00:07:29.662Z,3.27
2018-09-12T00:09:58.002Z,4.87
2018-09-12T00:12:26.347Z,2.90
2018-09-12T00:14:54.855Z,7.93
2018-09-12T00:17:23.212Z,2.70
2018-09-12T00:19:51.552Z,2.10
2018-09-12T00:22:20.036Z,4.53
2018-09-12T00:24:48.397Z,3.73
2018-09-12T00:27:16.767Z,3.80
2018-09-12T00:29:45.122Z,2.47
2018-09-12T00:32:13.451Z,3.07
2018-09-12T00:34:41.794Z,4.67
2018-09-12T00:37:10.151Z,9.33
2018-09-12T00:39:38.719Z,3.87
2018-09-12T00:42:07.058Z,2.30
2018-09-12T00:44:35.389Z,2.33
2018-09-12T00:47:03.774Z,3.70
2018-09-12T00:49:32.099Z,6.00
2018-09-12T00:52:00.465Z,5.60
2018-09-12T00:54:28.924Z,1.73
2018-09-12T00:56:57.290Z,2.83
2018-09-12T00:59:25.627Z,2.50
2018-09-12T01:01:53.931Z,9.33
2018-09-12T01:04:22.307Z,3.07
2018-09-12T01:06:50.658Z,2.43
2018-09-12T01:09:19.012Z,9.53
2018-09-12T01:11:47.310Z,3.53
2018-09-12T01:14:15.639Z,2.27
2018-09-12T01:16:43.955Z,6.63
2018-09-12T01:19:12.274Z,9.03
2018-09-12T01:21:40.622Z,2.60
2018-09-12T01:24:08.987Z,5.03
2018-09-12T01:26:37.301Z,5.43
2018-09-12T01:29:05.623Z,5.40
2018-09-12T01:31:33.952Z,1.97
2018-09-12T01:34:02.275Z,3.10
2018-09-12T01:36:30.588Z,3.53
2018-09-12T01:38:58.907Z,2.80
2018-09-12T01:41:27.227Z,2.30
2018-09-12T01:43:55.585Z,2.77
2018-09-12T01:46:23.929Z,2.60
2018-09-12T01:48:52.327Z,4.60
2018-09-12T01:51:20.682Z,3.43
2018-09-12T01:53:49.003Z,5.87
2018-09-12T01:56:17.324Z,3.27
2018-09-12T01:58:45.728Z,3.90
2018-09-12T02:01:14.085Z,11.33
2018-09-12T02:03:42.390Z,3.07
2018-09-12T02:06:10.707Z,9.50
2018-09-12T02:08:39.033Z,6.43
2018-09-12T02:11:07.432Z,5.97
2018-09-12T02:13:35.831Z,3.30
2018-09-12T02:16:04.282Z,12.73
2018-09-12T02:18:32.662Z,6.37
2018-09-12T02:21:01.084Z,8.13
2018-09-12T02:23:29.465Z,4.83
2018-09-12T02:25:57.918Z,6.33
2018-09-12T02:28:26.339Z,3.20
2018-09-12T02:30:54.714Z,6.37
2018-09-12T02:33:23.046Z,3.77
2018-09-12T02:35:56.766Z,3.47
2018-09-12T02:38:25.112Z,5.13
2018-09-12T02:40:53.443Z,4.27
2018-09-12T02:43:21.771Z,6.87
2018-09-12T02:45:50.151Z,4.50
2018-09-12T02:48:18.492Z,5.40
2018-09-12T02:50:46.802Z,5.00
2018-09-12T02:53:15.208Z,10.97
2018-09-12T02:55:43.527Z,4.90
2018-09-12T02:58:11.858Z,6.20
2018-09-12T03:00:40.180Z,7.80
2018-09-12T03:03:08.645Z,6.13
2018-09-12T03:05:36.978Z,8.10
2018-09-12T03:08:05.354Z,5.30
2018-09-12T03:10:33.623Z,3.50
2018-09-12T03:13:01.979Z,6.00
2018-09-12T03:15:30.302Z,8.33
2018-09-12T03:17:58.634Z,9.97
2018-09-12T03:20:27.011Z,4.60
2018-09-12T03:22:55.277Z,4.20
2018-09-12T03:25:23.598Z,5.07
2018-09-12T03:27:51.937Z,12.03
2018-09-12T03:30:20.275Z,4.03
2018-09-12T03:32:48.596Z,9.23
2018-09-12T03:35:17.082Z,5.70
2018-09-12T03:37:45.444Z,4.67
2018-09-12T03:40:13.885Z,4.53
2018-09-12T03:42:42.276Z,9.00
2018-09-12T03:45:10.729Z,3.57
2018-09-12T03:47:39.124Z,6.03
2018-09-12T03:50:07.568Z,3.73
2018-09-12T03:52:35.981Z,4.17
2018-09-12T03:55:04.579Z,3.67
2018-09-12T03:57:33.087Z,3.67
2018-09-12T04:00:01.602Z,5.07
2018-09-12T04:02:30.041Z,6.00
2018-09-12T04:04:58.523Z,3.47
2018-09-12T04:07:27.029Z,7.63
2018-09-12T04:09:55.474Z,3.80
2018-09-12T04:12:23.958Z,21.00
2018-09-12T04:14:52.459Z,3.47
2018-09-12T04:17:20.942Z,4.47
2018-09-12T04:19:49.450Z,4.17
2018-09-12T04:22:17.955Z,5.93
2018-09-12T04:24:46.443Z,11.33
2018-09-12T04:27:14.918Z,9.60
2018-09-12T04:29:43.444Z,4.23
2018-09-12T04:32:11.927Z,6.63
2018-09-12T04:34:40.435Z,6.90
2018-09-12T04:37:08.916Z,6.67
2018-09-12T04:39:37.403Z,3.90
2018-09-12T04:42:05.835Z,8.73
2018-09-12T04:44:34.305Z,14.60
2018-09-12T04:47:02.796Z,5.87
2018-09-12T04:49:31.337Z,11.90
2018-09-12T04:51:59.820Z,4.43
2018-09-12T04:54:28.226Z,3.53
2018-09-12T04:56:56.689Z,3.80
2018-09-12T04:59:25.183Z,5.20
2018-09-12T05:01:53.610Z,3.37
2018-09-12T05:04:22.083Z,5.23
2018-09-12T05:06:50.542Z,6.50
2018-09-12T05:09:19.001Z,4.97
2018-09-12T05:11:47.418Z,4.93
2018-09-12T05:14:15.813Z,11.73
2018-09-12T05:16:44.300Z,5.80
2018-09-12T05:19:12.702Z,4.30
2018-09-12T05:21:41.136Z,5.30
2018-09-12T05:24:09.562Z,6.00
2018-09-12T05:26:37.986Z,5.10
2018-09-12T05:29:06.362Z,6.43
2018-09-12T05:31:34.795Z,5.30
2018-09-12T05:34:03.289Z,4.70
2018-09-12T05:36:32.727Z,7.47
2018-09-12T05:39:01.155Z,11.37
2018-09-12T05:41:29.628Z,11.90
2018-09-12T05:43:58.100Z,4.83
2018-09-12T05:46:26.530Z,8.50
2018-09-12T05:48:54.963Z,8.53
2018-09-12T05:51:23.407Z,3.53
2018-09-12T05:53:51.839Z,6.37
2018-09-12T05:56:20.199Z,5.70
2018-09-12T05:58:48.670Z,4.80
2018-09-12T06:01:17.155Z,6.40
2018-09-12T06:03:45.627Z,2.70
2018-09-12T06:06:14.122Z,8.93
2018-09-12T06:08:42.594Z,7.10
2018-09-12T06:11:11.141Z,3.70
2018-09-12T06:13:39.584Z,5.30
2018-09-12T06:16:08.020Z,6.13
2018-09-12T06:18:36.516Z,5.37
2018-09-12T06:21:04.964Z,4.87
2018-09-12T06:23:33.367Z,7.10
2018-09-12T06:26:01.760Z,5.40
2018-09-12T06:28:30.086Z,3.20
2018-09-12T06:30:58.439Z,5.13
2018-09-12T06:33:26.859Z,4.07
2018-09-12T06:35:55.213Z,2.63
2018-09-12T06:38:23.626Z,3.90
2018-09-12T06:40:52.008Z,10.30
2018-09-12T06:43:20.375Z,2.27
2018-09-12T06:45:48.739Z,3.83
2018-09-12T06:48:17.086Z,3.43
2018-09-12T06:50:45.493Z,2.03
2018-09-12T06:53:13.899Z,2.57
2018-09-12T06:55:42.291Z,5.43
2018-09-12T06:58:10.704Z,6.00
2018-09-12T07:00:39.089Z,3.67
2018-09-12T07:03:07.408Z,8.43
2018-09-12T07:05:35.821Z,4.30
2018-09-12T07:08:04.183Z,3.20
2018-09-12T07:10:32.550Z,2.10
2018-09-12T07:13:01.037Z,4.57
2018-09-12T07:15:30.255Z,3.83
2018-09-12T07:17:58.643Z,1.93
2018-09-12T07:20:27.111Z,2.27
2018-09-12T07:22:55.525Z,5.33
2018-09-12T07:25:23.946Z,3.80
2018-09-12T07:27:52.354Z,2.00
2018-09-12T07:30:20.922Z,2.10
2018-09-12T07:32:49.272Z,4.40
2018-09-12T07:35:17.667Z,5.57
2018-09-12T07:37:46.026Z,1.87
2018-09-12T07:40:14.476Z,6.50
2018-09-12T07:42:42.872Z,2.07
2018-09-12T07:45:11.378Z,3.27
2018-09-12T07:47:40.142Z,3.43
2018-09-12T07:50:08.859Z,2.93
2018-09-12T07:52:37.343Z,5.03
2018-09-12T07:55:06.653Z,1.73
2018-09-12T07:57:35.335Z,3.03
2018-09-12T08:00:03.823Z,4.83
2018-09-12T08:02:32.351Z,2.37
2018-09-12T08:05:00.746Z,2.67
2018-09-12T08:07:29.076Z,4.27
2018-09-12T08:09:57.447Z,2.00
2018-09-12T08:12:26.206Z,2.63
2018-09-12T08:14:54.815Z,4.20
2018-09-12T08:17:23.322Z,3.20
2018-09-12T08:19:51.762Z,5.30
2018-09-12T08:22:20.154Z,5.00
2018-09-12T08:24:48.818Z,4.47
2018-09-12T08:27:17.234Z,7.33
2018-09-12T08:29:45.619Z,2.83
2018-09-12T08:32:14.040Z,5.63
2018-09-12T08:34:42.731Z,4.57
2018-09-12T08:37:11.332Z,5.13
2018-09-12T08:39:39.684Z,12.97
2018-09-12T08:42:08.293Z,6.93
2018-09-12T08:44:36.623Z,2.30
2018-09-12T08:47:05.026Z,2.73
2018-09-12T08:49:33.765Z,10.10
2018-09-12T08:52:02.130Z,7.17
2018-09-12T08:54:30.482Z,3.30
2018-09-12T08:56:58.971Z,3.27
2018-09-12T08:59:27.695Z,9.10
2018-09-12T09:01:56.299Z,2.77
2018-09-12T09:04:24.914Z,2.70
2018-09-12T09:06:53.344Z,3.33
2018-09-12T09:09:21.966Z,3.17
2018-09-12T09:11:50.641Z,6.60
2018-09-12T09:14:19.202Z,4.00
2018-09-12T09:16:47.567Z,4.10
2018-09-12T09:19:15.936Z,2.93
2018-09-12T09:21:44.284Z,4.83
2018-09-12T09:24:12.665Z,3.17
2018-09-12T09:26:41.441Z,4.40
2018-09-12T09:29:10.010Z,6.50
2018-09-12T09:31:38.422Z,4.77
2018-09-12T09:34:07.015Z,5.27
2018-09-12T09:36:35.605Z,3.40
2018-09-12T09:39:05.706Z,3.43
2018-09-12T09:41:34.095Z,3.57
2018-09-12T09:44:02.506Z,3.87
2018-09-12T09:46:30.838Z,4.40
2018-09-12T09:48:59.287Z,4.50
2018-09-12T09:51:27.654Z,5.07
2018-09-12T09:53:56.279Z,9.27
2018-09-12T09:56:24.607Z,3.40
2018-09-12T09:58:52.956Z,7.53
2018-09-12T10:01:26.727Z,5.27
2018-09-12T10:04:00.653Z,3.23
2018-09-12T10:06:34.968Z,4.43
2018-09-12T10:09:08.554Z,6.43
2018-09-12T10:11:36.912Z,4.00
2018-09-12T10:14:05.309Z,6.17
2018-09-12T10:16:33.927Z,7.37
2018-09-12T10:19:02.313Z,4.60
2018-09-12T10:21:31.023Z,2.67
2018-09-12T10:23:59.647Z,9.93
2018-09-12T10:26:28.016Z,5.57
2018-09-12T10:28:56.389Z,12.50
2018-09-12T10:31:24.807Z,4.73
2018-09-12T10:33:53.285Z,4.77
2018-09-12T10:36:22.272Z,6.13
2018-09-12T10:38:50.946Z,4.40
2018-09-12T10:41:19.613Z,13.93
2018-09-12T10:43:47.968Z,8.80
2018-09-12T10:46:16.591Z,7.90
2018-09-12T10:48:45.109Z,5.13
2018-09-12T10:51:13.480Z,6.30
2018-09-12T10:53:41.811Z,3.70
2018-09-12T10:56:10.610Z,3.97
2018-09-12T10:58:38.973Z,3.27
2018-09-12T11:01:07.322Z,5.93
2018-09-12T11:03:35.998Z,4.50
2018-09-12T11:06:04.362Z,10.40
2018-09-12T11:08:33.036Z,7.20
2018-09-12T11:11:01.671Z,5.83
2018-09-12T11:13:30.375Z,3.00
2018-09-12T11:15:58.909Z,4.33
2018-09-12T11:18:27.262Z,5.30
2018-09-12T11:20:55.725Z,6.40
2018-09-12T11:23:24.461Z,6.10
2018-09-12T11:25:53.061Z,13.23
2018-09-12T11:28:21.430Z,4.73
2018-09-12T11:30:50.118Z,8.33
2018-09-12T11:33:18.496Z,7.60
2018-09-12T11:35:47.247Z,3.47
2018-09-12T11:38:15.595Z,4.00
2018-09-12T11:40:44.185Z,3.53
2018-09-12T11:43:12.809Z,3.60
2018-09-12T11:45:41.371Z,2.93
2018-09-12T11:48:09.712Z,3.80
2018-09-12T11:50:38.463Z,5.13
2018-09-12T11:53:07.046Z,1.80
2018-09-12T11:55:35.568Z,4.13
2018-09-12T11:58:03.815Z,4.73
2018-09-12T12:00:32.155Z,2.40
2018-09-12T12:03:00.750Z,2.30
2018-09-12T12:05:29.275Z,3.97
2018-09-12T12:07:57.616Z,7.47
2018-09-12T12:10:26.268Z,2.60
2018-09-12T12:12:54.645Z,3.00
2018-09-12T12:15:23.333Z,2.17
2018-09-12T12:17:51.910Z,2.70
2018-09-12T12:20:20.542Z,1.90
2018-09-12T12:22:48.898Z,2.50
2018-09-12T12:25:17.267Z,2.27
2018-09-12T12:27:45.924Z,9.30
2018-09-12T12:30:15.353Z,2.33
2018-09-12T12:32:43.960Z,7.93
2018-09-12T12:35:12.481Z,3.13
2018-09-12T12:37:41.184Z,9.43
2018-09-12T12:40:09.937Z,8.73
2018-09-12T12:42:38.654Z,6.80
2018-09-12T12:45:07.090Z,2.93
2018-09-12T12:47:35.797Z,9.80
2018-09-12T12:50:04.358Z,4.70
2018-09-12T12:52:32.723Z,3.90
2018-09-12T12:55:01.426Z,11.53
2018-09-12T12:57:29.754Z,4.93
2018-09-12T12:59:58.119Z,4.23
2018-09-12T13:02:26.523Z,7.70
2018-09-12T13:04:54.863Z,3.70
2018-09-12T13:07:23.430Z,11.73
2018-09-12T13:09:51.854Z,5.40
2018-09-12T13:12:20.246Z,4.27
2018-09-12T13:14:48.685Z,3.00
2018-09-12T13:17:17.379Z,4.10
2018-09-12T13:19:46.010Z,4.00
2018-09-12T13:22:14.634Z,4.83
2018-09-12T13:24:43.011Z,3.47
2018-09-12T13:27:11.446Z,5.20
2018-09-12T13:29:40.030Z,5.40
2018-09-12T13:32:08.645Z,4.20
2018-09-12T13:34:38.083Z,9.50
2018-09-12T13:37:06.287Z,4.37
2018-09-12T13:39:34.676Z,4.13
2018-09-12T13:42:03.071Z,8.70
2018-09-12T13:44:31.578Z,3.00
2018-09-12T13:47:00.159Z,5.00
2018-09-12T13:49:28.463Z,4.70
2018-09-12T13:51:56.824Z,3.00
2018-09-12T13:54:25.214Z,3.10
2018-09-12T13:56:53.647Z,3.23
2018-09-12T13:59:22.126Z,3.87
2018-09-12T14:01:50.612Z,2.90
2018-09-12T14:04:19.139Z,5.40
2018-09-12T14:06:47.886Z,6.17
2018-09-12T14:09:16.331Z,4.17
2018-09-12T14:11:44.731Z,4.53
2018-09-12T14:14:13.357Z,3.53
2018-09-12T14:16:41.770Z,4.13
2018-09-12T14:19:10.166Z,3.23
2018-09-12T14:21:38.732Z,3.20
2018-09-12T14:24:07.079Z,9.00
2018-09-12T14:26:35.725Z,7.80
2018-09-12T14:29:04.107Z,11.73
2018-09-12T14:31:32.460Z,3.80
2018-09-12T14:34:00.931Z,5.20
2018-09-12T14:36:29.341Z,9.03
2018-09-12T14:38:57.827Z,8.07
2018-09-12T14:41:26.238Z,3.90
2018-09-12T14:43:54.870Z,6.67
2018-09-12T14:46:23.364Z,6.63
2018-09-12T14:48:51.823Z,4.63
2018-09-12T14:51:20.557Z,3.77
2018-09-12T14:53:49.183Z,8.47
2018-09-12T14:56:17.580Z,11.20
2018-09-12T14:58:46.026Z,14.53
2018-09-12T15:01:14.454Z,11.63
2018-09-12T15:03:42.943Z,10.60
2018-09-12T15:06:11.720Z,13.00
2018-09-12T15:08:40.109Z,17.73
2018-09-12T15:11:09.468Z,21.57
2018-09-12T15:13:37.821Z,12.40
2018-09-12T15:16:06.221Z,17.27
2018-09-12T15:18:34.562Z,15.53
2018-09-12T15:21:02.939Z,12.10
2018-09-12T15:23:31.287Z,17.30
2018-09-12T15:25:59.622Z,24.23
2018-09-12T15:28:28.021Z,16.20
2018-09-12T15:30:56.432Z,25.90
2018-09-12T15:33:24.839Z,20.03
2018-09-12T15:35:53.208Z,33.47
2018-09-12T15:38:21.670Z,19.63
2018-09-12T15:40:50.181Z,26.83
2018-09-12T15:43:18.556Z,26.37
2018-09-12T15:45:46.906Z,26.93
2018-09-12T15:48:15.288Z,23.23
2018-09-12T15:50:43.719Z,34.07
2018-09-12T15:53:12.437Z,23.40
2018-09-12T15:55:40.785Z,22.47
2018-09-12T15:58:09.154Z,22.93
2018-09-12T16:00:37.569Z,25.07
2018-09-12T16:03:06.077Z,22.50
2018-09-12T16:05:34.727Z,26.97
2018-09-12T16:08:03.355Z,28.77
2018-09-12T16:10:31.740Z,23.97
2018-09-12T16:13:00.140Z,26.63
2018-09-12T16:15:29.654Z,27.00
2018-09-12T16:17:57.986Z,30.27
2018-09-12T16:20:26.345Z,33.90
2018-09-12T16:22:54.689Z,34.27
2018-09-12T16:25:23.037Z,29.20
2018-09-12T16:27:51.608Z,39.80
2018-09-12T16:30:20.146Z,31.20
2018-09-12T16:32:48.683Z,32.20
2018-09-12T16:35:17.035Z,31.40
2018-09-12T16:37:45.813Z,36.30
2018-09-12T16:40:14.492Z,34.13
2018-09-12T16:42:43.095Z,41.23
2018-09-12T16:45:11.512Z,38.00
2018-09-12T16:47:39.856Z,38.97
2018-09-12T16:50:08.214Z,43.30
2018-09-12T16:52:36.634Z,43.60
2018-09-12T16:55:05.306Z,41.80
2018-09-12T16:57:33.647Z,38.40
2018-09-12T17:00:02.041Z,33.40
2018-09-12T17:02:30.431Z,34.17
2018-09-12T17:04:58.805Z,40.13
2018-09-12T17:07:27.231Z,44.40
2018-09-12T17:09:56.663Z,35.13
2018-09-12T17:12:25.038Z,44.20
2018-09-12T17:14:53.570Z,35.00
2018-09-12T17:17:21.981Z,31.77
2018-09-12T17:19:50.721Z,36.70
2018-09-12T17:22:19.537Z,33.70
2018-09-12T17:24:47.926Z,39.10
2018-09-12T17:27:16.356Z,43.03
2018-09-12T17:29:44.978Z,45.80
2018-09-12T17:32:13.401Z,46.73
2018-09-12T17:34:42.135Z,39.50
2018-09-12T17:37:10.761Z,57.80
2018-09-12T17:39:39.139Z,46.80
2018-09-12T17:42:07.811Z,51.10
2018-09-12T17:44:36.254Z,38.90
2018-09-12T17:47:04.742Z,51.40
2018-09-12T17:49:33.235Z,43.33
2018-09-12T17:52:01.645Z,44.63
2018-09-12T17:54:30.110Z,46.73
2018-09-12T17:56:58.552Z,50.60
2018-09-12T17:59:27.009Z,50.23
2018-09-12T18:01:55.447Z,54.43
2018-09-12T18:04:23.857Z,52.90
2018-09-12T18:06:52.282Z,48.53
2018-09-12T18:09:20.725Z,50.00
2018-09-12T18:11:49.266Z,49.83
2018-09-12T18:14:17.749Z,46.57
2018-09-12T18:16:46.211Z,52.83
2018-09-12T18:19:14.931Z,55.17
2018-09-12T18:21:43.528Z,55.50
2018-09-12T18:24:11.948Z,61.13
2018-09-12T18:26:40.415Z,65.97
2018-09-12T18:29:08.926Z,60.53
2018-09-12T18:31:37.476Z,46.87
2018-09-12T18:34:05.995Z,60.07
2018-09-12T18:36:34.394Z,59.03
2018-09-12T18:39:04.629Z,56.77
2018-09-12T18:41:33.222Z,55.80
2018-09-12T18:44:01.855Z,64.07
2018-09-12T18:46:30.376Z,60.73
2018-09-12T18:48:58.848Z,58.00
2018-09-12T18:51:27.343Z,66.67
2018-09-12T18:53:56.044Z,62.40
2018-09-12T18:56:24.478Z,59.90
2018-09-12T18:58:52.980Z,49.47
2018-09-12T19:01:21.451Z,57.03
2018-09-12T19:03:49.910Z,52.00
2018-09-12T19:06:18.382Z,47.00
2018-09-12T19:08:46.877Z,52.83
2018-09-12T19:11:15.346Z,54.33
2018-09-12T19:13:43.895Z,52.70
2018-09-12T19:16:12.421Z,51.70
2018-09-12T19:18:41.224Z,53.60
2018-09-12T19:21:09.785Z,43.60
2018-09-12T19:23:38.321Z,54.67
2018-09-12T19:26:06.895Z,60.60
2018-09-12T19:28:35.528Z,48.97
2018-09-12T19:31:04.075Z,46.57
2018-09-12T19:33:32.663Z,48.87
2018-09-12T19:36:01.428Z,41.57
2018-09-12T19:38:29.830Z,39.20
2018-09-12T19:40:58.317Z,36.50
2018-09-12T19:43:26.792Z,35.87
2018-09-12T19:45:55.279Z,49.00
2018-09-12T19:48:23.892Z,35.47
2018-09-12T19:50:52.355Z,32.90
2018-09-12T19:53:20.828Z,36.07
2018-09-12T19:55:49.335Z,40.80
2018-09-12T19:58:17.727Z,47.97
2018-09-12T20:00:46.163Z,39.27
2018-09-12T20:03:14.637Z,37.93
2018-09-12T20:05:43.096Z,46.77
2018-09-12T20:08:12.771Z,38.77
2018-09-12T20:10:41.567Z,40.50
2018-09-12T20:13:10.109Z,46.73
2018-09-12T20:15:38.586Z,40.07
2018-09-12T20:18:07.074Z,46.33
2018-09-12T20:20:35.579Z,46.10
2018-09-12T20:23:04.042Z,49.43
2018-09-12T20:25:32.521Z,38.60
2018-09-12T20:28:01.026Z,36.70
2018-09-12T20:30:29.531Z,29.67
2018-09-12T20:32:58.027Z,26.57
2018-09-12T20:35:26.510Z,25.00
2018-09-12T20:37:54.944Z,28.73
2018-09-12T20:40:23.548Z,23.67
2018-09-12T20:42:52.030Z,18.80
2018-09-12T20:45:20.435Z,43.27
2018-09-12T20:47:48.878Z,18.63
2018-09-12T20:50:17.367Z,19.00
2018-09-12T20:52:45.741Z,19.07
2018-09-12T20:55:14.231Z,15.37
2018-09-12T20:57:42.701Z,11.30
2018-09-12T21:00:11.207Z,17.10
2018-09-12T21:02:39.651Z,13.37
2018-09-12T21:05:08.051Z,18.40
2018-09-12T21:07:36.490Z,16.77
2018-09-12T21:10:05.183Z,16.33
2018-09-12T21:12:33.583Z,26.33
2018-09-12T21:15:02.050Z,14.53
2018-09-12T21:17:30.441Z,18.40
2018-09-12T21:19:58.895Z,17.87
2018-09-12T21:22:27.357Z,13.07
2018-09-12T21:24:55.962Z,15.50
2018-09-12T21:27:24.344Z,15.60
2018-09-12T21:29:52.793Z,18.07
2018-09-12T21:32:21.287Z,22.03
2018-09-12T21:34:49.650Z,20.23
2018-09-12T21:37:18.051Z,17.83
2018-09-12T21:39:46.429Z,17.80
2018-09-12T21:42:15.182Z,19.13
2018-09-12T21:44:43.543Z,16.70
2018-09-12T21:47:11.874Z,17.87
2018-09-12T21:49:40.201Z,16.93
2018-09-12T21:52:08.580Z,16.70
2018-09-12T21:54:36.899Z,23.07
2018-09-12T21:57:05.291Z,20.83
2018-09-12T21:59:33.632Z,17.17
2018-09-12T22:02:02.132Z,18.73
2018-09-12T22:04:30.478Z,21.07
2018-09-12T22:06:58.816Z,24.27
2018-09-12T22:09:27.156Z,20.53
2018-09-12T22:11:55.494Z,19.23
2018-09-12T22:14:23.886Z,22.70
2018-09-12T22:16:52.230Z,18.77
2018-09-12T22:19:20.582Z,22.53
2018-09-12T22:21:48.899Z,20.17
2018-09-12T22:24:17.289Z,23.03
2018-09-12T22:26:45.661Z,19.87
2018-09-12T22:29:14.039Z,21.30
2018-09-12T22:31:42.436Z,23.57
2018-09-12T22:34:11.792Z,21.50
2018-09-12T22:36:40.175Z,29.10
2018-09-12T22:39:09.978Z,21.80
2018-09-12T22:41:38.552Z,23.37
2018-09-12T22:44:06.919Z,22.37
2018-09-12T22:46:35.352Z,26.17
2018-09-12T22:49:04.250Z,31.43
2018-09-12T22:51:32.952Z,20.00
2018-09-12T22:54:01.448Z,25.23
2018-09-12T22:56:30.161Z,20.27
2018-09-12T22:58:58.639Z,22.50
2018-09-12T23:01:27.077Z,21.37
2018-09-12T23:03:55.508Z,20.93
2018-09-12T23:06:24.093Z,23.60
2018-09-12T23:08:52.596Z,22.17
2018-09-12T23:11:20.984Z,25.10
2018-09-12T23:13:49.559Z,31.13
2018-09-12T23:16:18.132Z,24.90
2018-09-12T23:18:46.501Z,29.37
2018-09-12T23:21:14.898Z,25.33
2018-09-12T23:23:43.332Z,27.83
2018-09-12T23:26:11.794Z,21.33
2018-09-12T23:28:40.241Z,31.03
2018-09-12T23:31:08.705Z,23.40
2018-09-12T23:33:37.162Z,30.90
2018-09-12T23:36:05.708Z,24.77
2018-09-12T23:38:34.148Z,26.80
2018-09-12T23:41:02.672Z,26.33
2018-09-12T23:43:31.062Z,27.87
2018-09-12T23:45:59.541Z,24.33
2018-09-12T23:48:28.017Z,27.03
2018-09-12T23:50:56.484Z,28.93
2018-09-12T23:53:24.921Z,25.47
2018-09-12T23:55:53.390Z,29.33
2018-09-12T23:58:21.896Z,27.50
